Time;durP1;ratioP1;P1;durP2;ratioP2;P2;SDS_P1;SDS_P2;PMS_P1;PMS_P2;Temp;Humidity;BMP_temperature;BMP_pressure;BME280_temperature;BME280_humidity;BME280_pressure;Samples;Min_cycle;Max_cycle;Signal;HPM_P1;HPM_P2
2022/05/01 00:03:03;;;;;;;;;;;9.40;88.90;;;;;;8381330;28;20300;-68
2022/05/01 00:07:05;;;;;;;;;;;9.40;89.10;;;;;;8375430;28;19978;-68
2022/05/01 00:11:08;;;;;;;;;;;9.40;89.00;;;;;;8377607;28;20283;-68
2022/05/01 00:15:14;;;;;;;;;;;9.30;88.90;;;;;;8380010;28;20410;-68
2022/05/01 00:19:16;;;;;;;;;;;9.20;89.30;;;;;;8397688;28;19924;-68
2022/05/01 00:23:32;;;;;;;;;;;9.20;89.70;;;;;;8377427;28;20024;-68
2022/05/01 00:27:34;;;;;;;;;;;9.00;89.40;;;;;;8372459;28;19925;-68
2022/05/01 00:31:36;;;;;;;;;;;9.00;88.50;;;;;;8382936;28;19932;-68
2022/05/01 00:39:58;;;;;;;;;;;8.90;88.50;;;;;;8378787;28;19925;-68
2022/05/01 00:44:03;;;;;;;;;;;8.90;88.30;;;;;;8370644;28;20218;-68
2022/05/01 00:48:05;;;;;;;;;;;8.80;88.40;;;;;;8389674;28;20288;-68
2022/05/01 00:52:08;;;;;;;;;;;8.60;88.20;;;;;;8378312;28;19924;-68
2022/05/01 00:56:10;;;;;;;;;;;8.60;88.20;;;;;;8379972;28;20000;-68
2022/05/01 01:00:11;;;;;;;;;;;8.50;88.40;;;;;;8356853;28;19925;-68
2022/05/01 01:04:13;;;;;;;;;;;8.50;88.30;;;;;;8365951;28;19932;-68
2022/05/01 01:08:15;;;;;;;;;;;8.50;88.40;;;;;;8372119;28;19924;-68
2022/05/01 01:16:44;;;;;;;;;;;8.40;88.20;;;;;;8376293;28;19929;-68
2022/05/01 01:20:46;;;;;;;;;;;8.40;88.50;;;;;;8348268;28;19924;-68
2022/05/01 01:24:48;;;;;;;;;;;8.30;88.50;;;;;;8348237;28;19931;-68
2022/05/01 01:28:50;;;;;;;;;;;8.30;88.20;;;;;;8348647;28;20289;-68
2022/05/01 01:32:52;;;;;;;;;;;8.20;88.40;;;;;;8348522;28;19925;-68
2022/05/01 01:36:53;;;;;;;;;;;8.20;88.00;;;;;;8370461;28;20033;-68
2022/05/01 01:40:56;;;;;;;;;;;8.10;87.80;;;;;;8345469;28;19925;-68
2022/05/01 01:44:59;;;;;;;;;;;8.00;87.50;;;;;;8347498;28;19924;-68
2022/05/01 01:49:01;;;;;;;4.50;2.40;;;7.90;87.60;;;;;;8352565;28;19932;-68
2022/05/01 01:53:02;;;;;;;4.93;2.30;;;7.80;87.60;;;;;;8346482;28;20512;-68
2022/05/01 01:57:05;;;;;;;4.78;2.35;;;7.80;87.50;;;;;;8350128;28;20080;-68
2022/05/01 02:01:08;;;;;;;4.22;2.25;;;7.70;87.10;;;;;;8358062;28;20040;-68
2022/05/01 02:05:10;;;;;;;4.28;2.03;;;7.60;86.80;;;;;;8382074;28;20044;-68
2022/05/01 02:09:15;;;;;;;5.65;2.60;;;7.40;86.80;;;;;;8383071;28;20046;-68
2022/05/01 02:13:17;;;;;;;4.70;2.40;;;7.40;87.00;;;;;;8394248;27;20049;-68
2022/05/01 02:17:19;;;;;;;;;;;7.30;87.00;;;;;;8376935;28;20412;-68
2022/05/01 02:21:36;;;;;;;;;;;7.30;87.10;;;;;;8392882;28;19928;-68
2022/05/01 02:25:40;;;;;;;;;;;7.30;86.90;;;;;;8385433;28;19970;-68
2022/05/01 02:29:43;;;;;;;;;;;7.20;86.70;;;;;;8393179;28;19920;-68
2022/05/01 02:33:45;;;;;;;4.55;2.20;;;7.20;86.60;;;;;;8386132;28;19928;-68
2022/05/01 02:37:46;;;;;;;4.70;2.22;;;7.10;86.20;;;;;;8382022;28;20400;-68
2022/05/01 02:41:50;;;;;;;5.10;2.47;;;7.00;86.00;;;;;;8391456;28;20515;-68
2022/05/01 02:45:52;;;;;;;4.80;2.40;;;7.00;86.00;;;;;;8398756;28;20484;-68
2022/05/01 02:49:53;;;;;;;4.50;2.47;;;6.90;85.90;;;;;;8399387;28;20051;-68
2022/05/01 02:53:55;;;;;;;6.05;2.58;;;6.80;85.80;;;;;;8376124;28;20052;-68
2022/05/01 02:57:57;;;;;;;4.80;2.58;;;6.70;85.80;;;;;;8391355;28;20048;-68
2022/05/01 03:02:00;;;;;;;4.53;2.28;;;6.70;85.90;;;;;;8386659;28;20097;-68
2022/05/01 03:06:03;;;;;;;5.07;2.65;;;6.70;85.90;;;;;;8389758;28;20137;-68
2022/05/01 03:10:06;;;;;;;4.70;2.60;;;6.60;85.80;;;;;;8388277;28;20043;-68
2022/05/01 03:14:10;;;;;;;;;;;6.60;85.80;;;;;;8389975;28;20048;-68
2022/05/01 03:22:32;;;;;;;;;;;6.50;85.50;;;;;;8381559;28;19920;-68
2022/05/01 03:26:34;;;;;;;;;;;6.40;85.40;;;;;;8384849;28;19925;-68
2022/05/01 03:30:36;;;;;;;;;;;6.30;85.30;;;;;;8381862;28;19928;-68
2022/05/01 03:34:38;;;;;;;;;;;6.30;85.00;;;;;;8387918;28;20375;-68
2022/05/01 03:38:42;;;;;;;5.00;2.40;;;6.20;85.00;;;;;;8387091;28;19921;-68
2022/05/01 03:42:44;;;;;;;5.30;2.60;;;6.20;85.00;;;;;;8379426;28;20514;-68
2022/05/01 03:46:45;;;;;;;5.75;2.80;;;6.10;85.00;;;;;;8394445;28;20044;-68
2022/05/01 03:50:51;;;;;;;6.50;2.80;;;6.00;84.80;;;;;;8391068;28;20045;-68
2022/05/01 03:54:53;;;;;;;5.32;2.65;;;5.90;84.60;;;;;;8373929;28;20052;-68
2022/05/01 03:58:56;;;;;;;4.65;2.33;;;5.90;84.90;;;;;;8348616;28;20430;-68
2022/05/01 04:02:58;;;;;;;5.38;2.63;;;5.90;84.90;;;;;;8348182;28;20083;-68
2022/05/01 04:07:00;;;;;;;6.70;2.83;;;5.80;84.70;;;;;;8367384;28;20633;-68
2022/05/01 04:11:02;;;;;;;6.38;3.10;;;5.80;84.50;;;;;;8354432;28;20063;-68
2022/05/01 04:15:07;;;;;;;6.07;2.72;;;5.70;84.40;;;;;;8353529;28;20472;-68
2022/05/01 04:19:10;;;;;;;6.65;3.13;;;5.70;84.50;;;;;;8362101;28;20491;-68
2022/05/01 04:23:12;;;;;;;6.07;2.85;;;5.60;84.50;;;;;;8384572;28;20053;-68
2022/05/01 04:27:13;;;;;;;6.78;3.40;;;5.60;84.40;;;;;;8376187;28;20809;-68
2022/05/01 04:31:15;;;;;;;7.65;3.00;;;5.60;84.60;;;;;;8378464;28;20049;-68
2022/05/01 04:35:31;;;;;;;6.68;2.88;;;5.50;84.50;;;;;;8374140;28;20060;-68
2022/05/01 04:39:33;;;;;;;6.50;3.20;;;5.50;84.40;;;;;;8376789;28;20045;-68
2022/05/01 04:43:36;;;;;;;6.13;2.97;;;5.50;84.60;;;;;;8378345;28;20519;-68
2022/05/01 04:47:38;;;;;;;6.35;2.60;;;5.50;84.70;;;;;;8374388;28;20040;-68
2022/05/01 04:51:40;;;;;;;4.72;2.33;;;5.60;85.00;;;;;;8354740;28;20411;-68
2022/05/01 04:55:44;;;;;;;5.13;2.33;;;5.60;85.20;;;;;;8415786;27;20052;-68
2022/05/01 04:59:46;;;;;;;5.32;3.05;;;5.60;85.20;;;;;;8350576;28;20041;-68
2022/05/01 05:03:48;;;;;;;5.22;2.90;;;5.60;85.20;;;;;;8363747;28;20037;-68
2022/05/01 05:07:50;;;;;;;5.70;3.00;;;5.70;85.70;;;;;;8370472;28;20041;-68
2022/05/01 05:11:52;;;;;;;5.53;3.05;;;5.70;85.80;;;;;;8364407;28;20051;-68
2022/05/01 05:15:58;;;;;;;6.82;3.40;;;5.80;86.00;;;;;;8382917;28;20439;-68
2022/05/01 05:20:01;;;;;;;5.70;3.17;;;5.90;86.50;;;;;;8373872;28;20049;-68
2022/05/01 05:24:03;;;;;;;7.05;3.15;;;6.00;87.00;;;;;;8374503;28;20094;-68
2022/05/01 05:28:07;;;;;;;5.95;3.15;;;6.10;87.30;;;;;;8363970;28;20415;-68
2022/05/01 05:32:09;;;;;;;6.40;3.22;;;6.20;87.90;;;;;;8365656;28;20059;-68
2022/05/01 05:36:11;;;;;;;6.25;3.22;;;6.30;88.20;;;;;;8365043;28;20044;-68
2022/05/01 05:40:12;;;;;;;5.97;3.03;;;6.40;88.70;;;;;;8374499;28;20051;-68
2022/05/01 05:44:14;;;;;;;6.40;3.40;;;6.50;89.20;;;;;;8355475;28;20052;-68
2022/05/01 05:48:16;;;;;;;5.43;2.70;;;6.60;89.80;;;;;;8353614;28;20412;-68
2022/05/01 05:52:18;;;;;;;5.65;2.85;;;6.70;90.20;;;;;;8368660;28;20056;-68
2022/05/01 05:56:20;;;;;;;5.53;2.92;;;6.80;90.20;;;;;;8364820;28;20099;-68
2022/05/01 06:00:22;;;;;;;;;;;7.00;90.50;;;;;;8363571;28;20052;-68
2022/05/01 06:04:23;;;;;;;;;;;7.20;91.00;;;;;;8366898;28;19924;-68
2022/05/01 06:08:25;;;;;;;;;;;7.30;91.30;;;;;;8351208;28;19967;-68
2022/05/01 06:12:28;;;;;;;;;;;7.50;91.60;;;;;;8334847;28;19929;-68
2022/05/01 06:21:27;;;;;;;;;;;7.80;92.20;;;;;;8351553;28;19939;-68
2022/05/01 06:25:28;;;;;;;;;;;8.00;92.50;;;;;;8350833;28;19921;-68
2022/05/01 06:29:30;;;;;;;;;;;8.20;92.70;;;;;;8356661;28;19925;-68
2022/05/01 06:33:34;;;;;;;;;;;8.40;92.90;;;;;;8350548;28;19921;-68
2022/05/01 06:37:36;;;;;;;;;;;8.50;93.20;;;;;;8354230;28;20261;-68
2022/05/01 06:41:38;;;;;;;;;;;8.70;93.60;;;;;;8361539;28;19928;-68
2022/05/01 06:45:41;;;;;;;;;;;8.90;93.90;;;;;;8356072;28;19921;-68
2022/05/01 06:49:43;;;;;;;;;;;9.10;94.00;;;;;;8353403;28;19928;-68
2022/05/01 06:53:45;;;;;;;;;;;9.30;94.30;;;;;;8366918;28;20209;-68
2022/05/01 06:57:46;;;;;;;;;;;9.60;94.60;;;;;;8361426;28;19932;-68
2022/05/01 07:01:48;;;;;;;;;;;9.80;95.30;;;;;;8360785;28;19920;-68
2022/05/01 07:05:50;;;;;;;;;;;10.00;96.00;;;;;;8358547;28;19920;-68
2022/05/01 07:09:51;;;;;;;;;;;10.10;95.50;;;;;;8362122;28;19920;-68
2022/05/01 07:13:53;;;;;;;;;;;10.30;95.60;;;;;;8394731;27;19982;-68
2022/05/01 07:17:55;;;;;;;;;;;10.40;95.40;;;;;;8358763;28;19920;-68
2022/05/01 07:21:56;;;;;;;;;;;10.60;95.30;;;;;;8364876;28;20054;-68
2022/05/01 07:25:58;;;;;;;;;;;10.60;95.10;;;;;;8359103;28;19935;-68
2022/05/01 07:29:59;;;;;;;;;;;10.70;95.20;;;;;;8361767;28;19940;-68
2022/05/01 07:34:01;;;;;;;;;;;10.80;95.30;;;;;;8359456;28;20274;-68
2022/05/01 07:38:03;;;;;;;;;;;10.80;95.40;;;;;;8361214;28;19955;-68
2022/05/01 07:42:04;;;;;;;;;;;10.90;95.50;;;;;;8345897;28;19968;-68
2022/05/01 07:46:06;;;;;;;;;;;11.00;95.50;;;;;;8345463;28;20274;-68
2022/05/01 07:50:08;;;;;;;;;;;11.20;95.80;;;;;;8348860;28;19928;-68
2022/05/01 07:54:09;;;;;;;;;;;11.40;95.90;;;;;;8345894;28;19927;-68
2022/05/01 07:58:11;;;;;;;;;;;11.60;95.90;;;;;;8354722;28;19978;-68
2022/05/01 08:02:13;;;;;;;;;;;11.70;95.70;;;;;;8356091;28;19920;-68
2022/05/01 08:06:15;;;;;;;;;;;11.80;95.80;;;;;;8340792;28;19986;-68
2022/05/01 08:10:16;;;;;;;;;;;11.90;95.90;;;;;;8352299;28;20288;-68
2022/05/01 08:14:18;;;;;;;;;;;12.00;95.90;;;;;;8354372;28;19982;-68
2022/05/01 08:22:41;;;;;;;;;;;12.10;96.00;;;;;;8357140;28;20349;-68
2022/05/01 08:26:47;;;;;;;;;;;12.20;96.00;;;;;;8357610;28;19928;-68
2022/05/01 08:30:48;;;;;;;;;;;12.30;96.00;;;;;;8355286;28;19928;-68
2022/05/01 08:34:50;;;;;;;;;;;12.30;95.70;;;;;;8350542;28;20384;-68
2022/05/01 08:38:52;;;;;;;;;;;12.30;95.70;;;;;;8355788;28;19928;-68
2022/05/01 08:42:54;;;;;;;;;;;12.40;95.80;;;;;;8354909;28;19927;-68
2022/05/01 08:46:56;;;;;;;;;;;12.40;95.80;;;;;;8353980;28;19971;-68
2022/05/01 08:50:59;;;;;;;;;;;12.50;95.80;;;;;;8352197;28;19921;-68
2022/05/01 08:55:03;;;;;;;;;;;12.50;95.80;;;;;;8362763;28;20300;-68
2022/05/01 08:59:06;;;;;;;;;;;12.60;95.80;;;;;;8388098;28;20362;-69
2022/05/01 09:03:08;;;;;;;;;;;12.70;95.90;;;;;;8368768;28;19920;-69
2022/05/01 09:07:10;;;;;;;;;;;12.80;95.90;;;;;;8355969;28;19936;-68
2022/05/01 09:15:40;;;;;;;;;;;13.00;96.10;;;;;;8358121;28;19929;-68
2022/05/01 09:19:42;;;;;;;;;;;13.00;96.00;;;;;;8365163;28;20284;-68
2022/05/01 09:23:45;;;;;;;;;;;13.10;96.00;;;;;;8376608;28;20651;-69
2022/05/01 09:27:49;;;;;;;;;;;13.10;95.80;;;;;;8362650;28;20291;-69
2022/05/01 09:31:50;;;;;;;;;;;13.10;95.70;;;;;;8367968;28;20033;-69
2022/05/01 09:35:52;;;;;;;;;;;13.10;95.60;;;;;;8368708;28;19921;-68
2022/05/01 09:39:54;;;;;;;;;;;13.20;95.60;;;;;;8353134;28;19935;-69
2022/05/01 09:43:55;;;;;;;;;;;13.20;95.40;;;;;;8352797;28;19931;-69
2022/05/01 09:47:57;;;;;;;;;;;13.30;95.50;;;;;;8354174;28;19967;-69
2022/05/01 09:52:00;;;;;;;;;;;13.40;95.60;;;;;;8367321;28;19921;-69
2022/05/01 09:56:01;;;;;;;;;;;13.50;95.60;;;;;;8364126;28;19924;-69
2022/05/01 10:00:03;;;;;;;;;;;13.70;95.80;;;;;;8365410;28;19979;-69
2022/05/01 10:04:06;;;;;;;;;;;13.90;95.90;;;;;;8353066;28;20182;-69
2022/05/01 10:08:08;;;;;;;;;;;14.10;96.30;;;;;;8353883;28;19931;-68
2022/05/01 10:17:12;;;;;;;;;;;14.80;96.80;;;;;;8358177;28;19962;-68
2022/05/01 10:21:14;;;;;;;;;;;15.20;96.70;;;;;;8351021;28;19964;-69
2022/05/01 10:25:17;;;;;;;;;;;15.30;96.60;;;;;;8358582;28;20023;-68
2022/05/01 10:29:21;;;;;;;;;;;15.40;96.60;;;;;;8361902;28;19921;-69
2022/05/01 10:33:34;;;;;;;;;;;15.80;96.80;;;;;;8369139;28;19921;-68
2022/05/01 10:37:49;;;;;;;;;;;15.80;95.90;;;;;;8372425;28;19924;-68
2022/05/01 10:41:51;;;;;;;;;;;15.70;95.90;;;;;;8373548;28;19924;-68
2022/05/01 10:45:53;;;;;;;;;;;15.70;95.50;;;;;;8360637;28;19971;-68
2022/05/01 10:50:04;;;;;;;;;;;15.50;95.20;;;;;;8367412;28;20385;-68
2022/05/01 10:54:15;;;;;;;;;;;15.50;95.50;;;;;;8366868;28;19935;-68
2022/05/01 10:58:18;;;;;;;;;;;15.80;96.00;;;;;;8361487;28;19920;-68
2022/05/01 11:02:22;;;;;;;;;;;15.90;96.00;;;;;;8363186;28;19920;-68
2022/05/01 11:06:27;;;;;;;;;;;16.00;95.70;;;;;;8360360;28;19974;-68
2022/05/01 11:10:29;;;;;;;;;;;15.90;95.60;;;;;;8361324;28;20492;-68
2022/05/01 11:14:35;;;;;;;;;;;15.90;95.70;;;;;;8360456;28;19924;-68
2022/05/01 11:18:39;;;;;;;;;;;15.90;94.80;;;;;;8367917;28;20407;-68
2022/05/01 11:22:45;;;;;;;;;;;15.70;94.50;;;;;;8358862;28;20435;-68
2022/05/01 11:27:05;;;;;;;;;;;15.60;94.30;;;;;;8359072;28;19997;-68
2022/05/01 11:31:27;;;;;;;;;;;15.50;94.10;;;;;;8357505;28;20436;-68
2022/05/01 11:35:47;;;;;;;;;;;15.40;94.20;;;;;;8358807;28;20396;-68
2022/05/01 11:39:49;;;;;;;;;;;15.50;94.60;;;;;;8391187;27;20312;-68
2022/05/01 11:44:11;;;;;;;;;;;15.50;94.20;;;;;;8360897;28;19927;-68
2022/05/01 11:48:20;;;;;;;;;;;15.60;94.10;;;;;;8362718;28;19920;-68
2022/05/01 11:52:24;;;;;;;;;;;15.60;93.60;;;;;;8364523;28;19964;-68
2022/05/01 12:05:07;;;;;;;;;;;16.20;95.60;;;;;;8358100;28;19939;-68
2022/05/01 12:09:09;;;;;;;;;;;16.40;94.80;;;;;;8359020;28;19920;-68
2022/05/01 12:13:17;;;;;;;;;;;16.60;96.20;;;;;;8360044;28;19924;-68
2022/05/01 12:17:21;;;;;;;;;;;16.70;96.10;;;;;;8361687;28;19921;-68
2022/05/01 12:21:29;;;;;;;;;;;16.90;96.20;;;;;;8359307;28;19928;-68
2022/05/01 12:25:31;;;;;;;;;;;17.00;96.20;;;;;;8357826;28;19920;-68
2022/05/01 12:29:33;;;;;;;;;;;17.00;96.00;;;;;;8356719;28;19924;-68
2022/05/01 12:33:35;;;;;;;;;;;17.00;95.40;;;;;;8358427;28;19927;-68
2022/05/01 12:37:38;;;;;;;;;;;17.10;95.50;;;;;;8359766;28;19936;-68
2022/05/01 12:46:24;;;;;;;;;;;17.20;95.00;;;;;;8360681;28;19924;-68
2022/05/01 12:50:27;;;;;;;;;;;17.30;95.10;;;;;;8355922;28;19946;-68
2022/05/01 12:54:29;;;;;;;;;;;17.40;94.40;;;;;;8360682;28;19939;-68
2022/05/01 12:58:32;;;;;;;;;;;17.40;94.50;;;;;;8359237;28;19924;-68
2022/05/01 13:02:34;;;;;;;;;;;17.40;94.10;;;;;;8362583;28;19924;-68
2022/05/01 13:06:37;;;;;;;;;;;17.20;94.20;;;;;;8358786;28;20020;-68
2022/05/01 13:10:39;;;;;;;;;;;17.20;94.20;;;;;;8359633;28;19921;-68
2022/05/01 13:14:54;;;;;;;;;;;17.30;94.80;;;;;;8358982;28;19942;-68
2022/05/01 13:18:57;;;;;;;;;;;17.40;94.70;;;;;;8358123;28;19928;-68
2022/05/01 13:22:59;;;;;;;;;;;17.50;94.60;;;;;;8356235;28;20325;-68
2022/05/01 13:27:02;;;;;;;;;;;17.50;94.60;;;;;;8352299;28;20389;-68
2022/05/01 13:31:04;;;;;;;;;;;17.60;94.50;;;;;;8358248;28;19926;-68
2022/05/01 13:35:06;;;;;;;;;;;17.60;94.10;;;;;;8355388;28;19920;-68
2022/05/01 13:39:09;;;;;;;;;;;17.60;93.90;;;;;;8356149;28;20957;-68
2022/05/01 13:47:32;;;;;;;;;;;17.50;93.60;;;;;;8359121;28;20277;-68
2022/05/01 13:51:34;;;;;;;;;;;17.40;93.10;;;;;;8353715;28;19925;-68
2022/05/01 13:55:35;;;;;;;;;;;17.20;92.70;;;;;;8356739;28;19934;-69
2022/05/01 13:59:37;;;;;;;;;;;17.10;92.60;;;;;;8358760;28;20438;-68
2022/05/01 14:03:39;;;;;;;;;;;17.10;92.80;;;;;;8354919;28;19921;-68
2022/05/01 14:07:40;;;;;;;;;;;17.20;92.90;;;;;;8356075;28;20441;-68
2022/05/01 14:11:42;;;;;;;;;;;17.20;93.00;;;;;;8355871;28;20407;-67
2022/05/01 14:15:43;;;;;;;;;;;17.10;92.10;;;;;;8362498;28;19928;-68
2022/05/01 14:19:47;;;;;;;;;;;17.10;92.50;;;;;;8356517;28;19947;-68
2022/05/01 14:23:49;;;;;;;;;;;17.20;92.40;;;;;;8362728;28;19921;-68
2022/05/01 14:27:51;;;;;;;;;;;17.20;92.60;;;;;;8357952;28;19937;-68
2022/05/01 14:32:04;;;;;;;;;;;17.10;91.70;;;;;;8350863;28;19951;-68
2022/05/01 14:36:06;;;;;;;;;;;17.00;91.50;;;;;;8381526;28;19966;-68
2022/05/01 14:40:09;;;;;;;;;;;16.80;91.00;;;;;;8349854;28;19944;-68
2022/05/01 14:44:12;;;;;;;;;;;16.70;91.10;;;;;;8353903;28;19995;-68
2022/05/01 14:48:21;;;;;;;;;;;16.70;90.90;;;;;;8351459;28;20379;-68
2022/05/01 14:52:24;;;;;;;;;;;16.80;91.60;;;;;;8382099;28;19920;-68
2022/05/01 14:56:25;;;;;;;;;;;17.20;92.30;;;;;;8350824;28;19928;-68
2022/05/01 15:09:10;;;;;;;;;;;17.50;91.80;;;;;;8369696;28;19927;-68
2022/05/01 15:13:12;;;;;;;;;;;17.50;91.30;;;;;;8360265;28;19933;-68
2022/05/01 15:17:17;;;;;;;;;;;17.40;91.00;;;;;;8356812;28;19940;-68
2022/05/01 15:21:18;;;;;;;;;;;17.20;90.60;;;;;;8368954;28;19928;-68
2022/05/01 15:25:29;;;;;;;;;;;17.00;90.40;;;;;;8369726;28;19924;-68
2022/05/01 15:29:37;;;;;;;;;;;16.90;90.50;;;;;;8370652;28;19935;-68
2022/05/01 15:33:43;;;;;;;;;;;17.20;91.30;;;;;;8397578;27;19964;-68
2022/05/01 15:37:46;;;;;;;;;;;17.70;92.30;;;;;;8361583;28;19920;-68
2022/05/01 15:41:54;;;;;;;;;;;18.40;92.80;;;;;;8363629;28;19943;-68
2022/05/01 15:45:56;;;;;;;;;;;19.10;93.60;;;;;;8361608;28;20379;-68
2022/05/01 15:54:19;;;;;;;;;;;19.10;92.10;;;;;;8361077;28;20009;-68
2022/05/01 15:58:22;;;;;;;;;;;18.70;91.10;;;;;;8367054;28;19960;-68
2022/05/01 16:02:24;;;;;;;;;;;18.20;90.40;;;;;;8358425;28;20344;-68
2022/05/01 16:06:30;;;;;;;4.85;2.10;;;17.80;89.50;;;;;;8358577;28;19927;-68
2022/05/01 16:10:40;;;;;;;4.55;2.35;;;17.40;88.40;;;;;;8357561;28;20040;-68
2022/05/01 16:14:49;;;;;;;;;;;17.10;89.30;;;;;;8365187;28;20056;-68
2022/05/01 16:18:50;;;;;;;;;;;17.00;89.50;;;;;;8363060;28;20388;-68
2022/05/01 16:22:58;;;;;;;;;;;16.90;90.00;;;;;;8357384;28;19928;-68
2022/05/01 16:27:02;;;;;;;;;;;16.90;90.10;;;;;;8356923;28;19967;-68
2022/05/01 16:31:05;;;;;;;;;;;16.90;90.00;;;;;;8357122;28;19931;-68
2022/05/01 16:35:11;;;;;;;;;;;16.90;90.00;;;;;;8357122;28;19920;-68
2022/05/01 16:39:13;;;;;;;;;;;16.90;89.90;;;;;;8361411;28;19928;-68
2022/05/01 16:43:16;;;;;;;;;;;16.90;89.60;;;;;;8358238;28;19979;-68
2022/05/01 16:47:19;;;;;;;;;;;16.80;89.50;;;;;;8364524;28;20458;-68
2022/05/01 16:51:21;;;;;;;;;;;16.80;89.60;;;;;;8358474;28;19928;-68
2022/05/01 16:55:23;;;;;;;;;;;16.80;89.60;;;;;;8356209;28;19947;-68
2022/05/01 16:59:26;;;;;;;;;;;16.80;89.40;;;;;;8359165;28;19928;-68
2022/05/01 17:03:38;;;;;;;;;;;16.80;89.40;;;;;;8358350;28;19932;-68
2022/05/01 17:07:56;;;;;;;;;;;16.70;89.50;;;;;;8392335;28;20282;-68
2022/05/01 17:12:03;;;;;;;;;;;16.70;89.60;;;;;;8355499;28;19929;-68
2022/05/01 17:16:08;;;;;;;;;;;16.70;89.50;;;;;;8371151;28;19955;-68
2022/05/01 17:20:11;;;;;;;;;;;16.80;89.80;;;;;;8361118;28;19963;-68
2022/05/01 17:24:14;;;;;;;;;;;16.80;89.60;;;;;;8359930;28;19928;-68
2022/05/01 17:28:16;;;;;;;;;;;16.80;89.70;;;;;;8357898;28;19933;-68
2022/05/01 17:32:22;;;;;;;;;;;16.80;90.00;;;;;;8360444;28;19929;-68
2022/05/01 17:36:25;;;;;;;;;;;16.80;89.70;;;;;;8359408;28;19925;-68
2022/05/01 17:40:27;;;;;;;;;;;16.80;89.80;;;;;;8366543;28;19924;-68
2022/05/01 17:44:30;;;;;;;;;;;16.80;89.90;;;;;;8370862;28;20019;-68
2022/05/01 17:48:35;;;;;;;;;;;16.80;89.60;;;;;;8369056;28;19932;-68
2022/05/01 17:52:37;;;;;;;;;;;16.80;89.60;;;;;;8370345;28;20355;-68
2022/05/01 17:56:39;;;;;;;;;;;16.80;89.70;;;;;;8369780;28;19947;-68
2022/05/01 18:00:50;;;;;;;;;;;16.70;89.40;;;;;;8362358;28;20268;-68
2022/05/01 18:09:57;;;;;;;;;;;16.60;89.50;;;;;;8364501;28;19929;-68
2022/05/01 18:14:08;;;;;;;3.20;1.40;;;16.60;89.40;;;;;;8364543;28;19932;-68
2022/05/01 18:18:31;;;;;;;3.05;1.40;;;16.50;89.10;;;;;;8370284;28;20045;-68
2022/05/01 18:23:08;;;;;;;3.55;1.73;;;16.40;88.80;;;;;;8365305;28;20057;-68
2022/05/01 18:27:14;;;;;;;;;;;16.30;88.70;;;;;;8355237;28;20055;-67
2022/05/01 18:31:23;;;;;;;3.65;1.70;;;16.20;89.00;;;;;;8368192;28;19935;-68
2022/05/01 18:35:30;;;;;;;3.33;1.63;;;16.20;88.90;;;;;;8354039;28;20169;-68
2022/05/01 18:40:03;;;;;;;3.60;1.33;;;16.10;88.80;;;;;;8356210;28;20063;-68
2022/05/01 18:44:08;;;;;;;3.72;1.55;;;16.10;88.80;;;;;;8370236;28;20049;-68
2022/05/01 18:48:11;;;;;;;;;;;16.00;88.50;;;;;;8356212;28;20524;-68
2022/05/01 18:52:15;;;;;;;;;;;15.90;88.50;;;;;;8357878;28;19920;-68
2022/05/01 18:56:17;;;;;;;;;;;15.90;88.40;;;;;;8363878;28;19920;-68
2022/05/01 19:00:19;;;;;;;;;;;15.80;88.00;;;;;;8351889;28;19928;-68
2022/05/01 19:04:21;;;;;;;;;;;15.70;87.80;;;;;;8367199;28;20252;-68
2022/05/01 19:08:25;;;;;;;;;;;15.60;87.60;;;;;;8393922;27;20364;-68
2022/05/01 19:12:39;;;;;;;;;;;15.40;87.10;;;;;;8358323;28;19944;-68
2022/05/01 19:16:41;;;;;;;;;;;15.30;86.90;;;;;;8359253;28;19924;-68
2022/05/01 19:20:55;;;;;;;;;;;15.20;86.70;;;;;;8362600;28;19928;-68
2022/05/01 19:29:56;;;;;;;;;;;14.90;86.40;;;;;;8361837;28;19932;-68
2022/05/01 19:34:16;;;;;;;;;;;14.80;86.30;;;;;;8365813;28;19924;-68
2022/05/01 19:38:24;;;;;;;;;;;14.70;86.20;;;;;;8369660;28;19927;-68
2022/05/01 19:42:44;;;;;;;;;;;14.60;86.20;;;;;;8373460;28;20280;-67
2022/05/01 19:56:10;;;;;;;;;;;14.10;85.60;;;;;;8375699;28;19968;-67
2022/05/01 20:00:22;;;;;;;;;;;14.00;85.30;;;;;;8368463;28;19931;-67
2022/05/01 20:04:25;;;;;;;;;;;13.80;85.00;;;;;;8372739;28;19927;-68
2022/05/01 20:08:27;;;;;;;;;;;13.70;85.00;;;;;;8370886;28;19955;-67
2022/05/01 20:12:28;;;;;;;;;;;13.60;85.00;;;;;;8374242;28;19928;-68
2022/05/01 20:16:49;;;;;;;;;;;13.50;84.90;;;;;;8375696;28;19928;-68
2022/05/01 20:21:23;;;;;;;;;;;13.40;84.90;;;;;;8380397;28;19991;-68
2022/05/01 20:25:27;;;;;;;;;;;13.30;84.80;;;;;;8368804;28;19928;-68
2022/05/01 20:29:49;;;;;;;;;;;13.20;84.90;;;;;;8372203;28;21802;-68
2022/05/01 20:34:02;;;;;;;;;;;13.10;84.90;;;;;;8367055;28;19921;-67
2022/05/01 20:38:22;;;;;;;;;;;13.00;84.80;;;;;;8370915;28;19952;-68
2022/05/01 20:42:48;;;;;;;;;;;12.90;84.60;;;;;;8372164;28;19920;-68
2022/05/01 20:46:58;;;;;;;;;;;12.80;84.60;;;;;;8373763;28;19936;-67
2022/05/01 20:51:04;;;;;;;;;;;12.70;84.60;;;;;;8373047;28;19929;-67
2022/05/01 20:55:07;;;;;;;;;;;12.60;84.40;;;;;;8375399;28;19928;-68
2022/05/01 20:59:09;;;;;;;;;;;12.50;84.50;;;;;;8403866;27;20288;-68
2022/05/01 21:03:13;;;;;;;;;;;12.40;84.50;;;;;;8384018;28;20284;-68
2022/05/01 21:07:15;;;;;;;;;;;12.30;84.40;;;;;;8398158;28;19927;-68
2022/05/01 21:11:18;;;;;;;4.90;1.90;;;12.20;84.40;;;;;;8390817;28;19939;-68
2022/05/01 21:15:20;;;;;;;4.05;1.90;;;12.20;84.40;;;;;;8391195;28;20044;-68
2022/05/01 21:19:21;;;;;;;3.60;1.73;;;12.00;84.20;;;;;;8394750;28;20088;-68
2022/05/01 21:23:23;;;;;;;3.83;1.77;;;12.00;84.30;;;;;;8396733;28;20412;-68
2022/05/01 21:27:25;;;;;;;3.55;1.90;;;11.90;84.40;;;;;;8402802;28;20052;-68
2022/05/01 21:35:47;;;;;;;4.25;1.90;;;11.80;84.30;;;;;;8392940;28;20045;-68
2022/05/01 21:39:49;;;;;;;4.32;2.20;;;11.70;84.40;;;;;;8387268;28;20052;-68
2022/05/01 21:43:51;;;;;;;4.65;2.00;;;11.70;84.40;;;;;;8386332;28;20052;-68
2022/05/01 21:47:52;;;;;;;6.32;2.20;;;11.60;84.20;;;;;;8390945;28;20041;-68
2022/05/01 21:51:54;;;;;;;3.95;1.92;;;11.50;84.20;;;;;;8397842;28;20056;-68
2022/05/01 21:55:58;;;;;;;4.38;2.00;;;11.40;84.20;;;;;;8396945;28;22468;-68
2022/05/01 22:00:00;;;;;;;4.70;2.20;;;11.30;84.20;;;;;;8393297;28;20502;-68
2022/05/01 22:04:02;;;;;;;3.80;1.92;;;11.20;84.10;;;;;;8423476;28;20056;-68
2022/05/01 22:08:05;;;;;;;5.53;2.15;;;11.20;84.10;;;;;;8388459;28;20076;-68
2022/05/01 22:12:08;;;;;;;3.63;1.88;;;11.10;84.10;;;;;;8399964;28;20055;-68
2022/05/01 22:16:09;;;;;;;3.78;2.05;;;11.10;84.10;;;;;;8398966;28;20056;-68
2022/05/01 22:20:17;;;;;;;4.97;1.95;;;11.00;84.10;;;;;;8390657;28;20396;-67
2022/05/01 22:24:18;;;;;;;4.28;2.08;;;11.00;84.10;;;;;;8426617;28;20045;-68
2022/05/01 22:28:21;;;;;;;4.70;2.50;;;10.90;84.20;;;;;;8395049;28;20091;-68
2022/05/01 22:32:23;;;;;;;4.63;2.30;;;10.80;84.10;;;;;;8404531;28;20075;-68
2022/05/01 22:40:45;;;;;;;4.47;2.20;;;10.70;83.90;;;;;;8395036;28;20045;-68
2022/05/01 22:44:47;;;;;;;;;;;10.60;83.80;;;;;;8400144;28;19935;-68
2022/05/01 22:48:49;;;;;;;;;;;10.50;83.60;;;;;;8400167;28;19924;-68
2022/05/01 22:52:51;;;;;;;;;;;10.40;83.50;;;;;;8399687;28;19928;-68
2022/05/01 22:56:52;;;;;;;;;;;10.40;83.60;;;;;;8412325;28;19929;-68
2022/05/01 23:00:54;;;;;;;;;;;10.30;83.50;;;;;;8397904;28;20010;-68
2022/05/01 23:04:56;;;;;;;;;;;10.30;83.70;;;;;;8401537;28;19921;-68
2022/05/01 23:08:57;;;;;;;;;;;10.20;83.70;;;;;;8395331;28;19927;-68
2022/05/01 23:12:59;;;;;;;;;;;10.10;83.70;;;;;;8395701;28;19920;-68
2022/05/01 23:17:01;;;;;;;;;;;10.10;83.60;;;;;;8395733;28;20284;-67
2022/05/01 23:21:03;;;;;;;;;;;10.10;83.60;;;;;;8400472;28;20307;-68
2022/05/01 23:25:05;;;;;;;;;;;10.00;83.70;;;;;;8402231;28;20387;-68
2022/05/01 23:29:06;;;;;;;;;;;9.90;84.60;;;;;;8397911;28;19925;-67
2022/05/01 23:33:09;;;;;;;;;;;9.80;84.50;;;;;;8393600;28;20378;-68
2022/05/01 23:37:11;;;;;;;;;;;9.80;84.50;;;;;;8405342;28;19924;-68
2022/05/01 23:41:13;;;;;;;;;;;9.70;84.40;;;;;;8401651;28;19920;-68
2022/05/01 23:45:15;;;;;;;;;;;9.60;84.20;;;;;;8396866;28;19925;-68
2022/05/01 23:49:16;;;;;;;;;;;9.50;84.40;;;;;;8403282;28;20644;-68
2022/05/01 23:53:18;;;;;;;;;;;9.40;84.30;;;;;;8397264;28;19920;-68
2022/05/01 23:57:20;;;;;;;;;;;9.30;84.30;;;;;;8396267;28;19928;-67
